sensor_id;sensor_type;location;lat;lon;timestamp;P1;durP1;ratioP1;P2;durP2;ratioP2
8060;SDS011;4073;42.626;25.386;2024-01-10T00:01:41;1.50;;;1.40;;
8060;SDS011;4073;42.626;25.386;2024-01-10T00:04:07;1.70;;;1.47;;
8060;SDS011;4073;42.626;25.386;2024-01-10T00:06:32;1.67;;;1.57;;
8060;SDS011;4073;42.626;25.386;2024-01-10T00:08:58;1.93;;;1.50;;
8060;SDS011;4073;42.626;25.386;2024-01-10T00:11:23;1.87;;;1.47;;
8060;SDS011;4073;42.626;25.386;2024-01-10T00:13:49;1.27;;;1.17;;
8060;SDS011;4073;42.626;25.386;2024-01-10T00:16:14;1.47;;;1.37;;
8060;SDS011;4073;42.626;25.386;2024-01-10T00:18:40;2.57;;;1.53;;
8060;SDS011;4073;42.626;25.386;2024-01-10T00:21:09;1.30;;;1.20;;
8060;SDS011;4073;42.626;25.386;2024-01-10T00:23:36;1.38;;;1.27;;
8060;SDS011;4073;42.626;25.386;2024-01-10T00:26:02;1.10;;;1.00;;
8060;SDS011;4073;42.626;25.386;2024-01-10T00:28:27;2.13;;;1.60;;
8060;SDS011;4073;42.626;25.386;2024-01-10T00:30:52;3.00;;;1.63;;
8060;SDS011;4073;42.626;25.386;2024-01-10T00:33:18;1.43;;;1.33;;
8060;SDS011;4073;42.626;25.386;2024-01-10T00:35:43;1.10;;;1.00;;
8060;SDS011;4073;42.626;25.386;2024-01-10T00:38:09;1.70;;;1.40;;
8060;SDS011;4073;42.626;25.386;2024-01-10T00:40:35;3.43;;;1.60;;
8060;SDS011;4073;42.626;25.386;2024-01-10T00:43:01;1.90;;;1.80;;
8060;SDS011;4073;42.626;25.386;2024-01-10T00:45:27;1.40;;;1.30;;
8060;SDS011;4073;42.626;25.386;2024-01-10T00:47:52;2.40;;;1.90;;
8060;SDS011;4073;42.626;25.386;2024-01-10T00:50:18;3.17;;;1.40;;
8060;SDS011;4073;42.626;25.386;2024-01-10T00:52:44;1.70;;;1.30;;
8060;SDS011;4073;42.626;25.386;2024-01-10T00:55:10;1.30;;;1.20;;
8060;SDS011;4073;42.626;25.386;2024-01-10T00:57:35;1.63;;;1.53;;
8060;SDS011;4073;42.626;25.386;2024-01-10T01:00:03;1.67;;;1.35;;
8060;SDS011;4073;42.626;25.386;2024-01-10T01:02:32;1.75;;;1.65;;
8060;SDS011;4073;42.626;25.386;2024-01-10T01:04:57;2.10;;;1.50;;
8060;SDS011;4073;42.626;25.386;2024-01-10T01:07:23;1.60;;;1.50;;
8060;SDS011;4073;42.626;25.386;2024-01-10T01:09:48;2.40;;;1.37;;
8060;SDS011;4073;42.626;25.386;2024-01-10T01:12:14;2.20;;;1.57;;
8060;SDS011;4073;42.626;25.386;2024-01-10T01:14:39;2.10;;;1.90;;
8060;SDS011;4073;42.626;25.386;2024-01-10T01:17:05;1.40;;;1.30;;
8060;SDS011;4073;42.626;25.386;2024-01-10T01:19:30;1.60;;;1.20;;
8060;SDS011;4073;42.626;25.386;2024-01-10T01:21:56;1.47;;;1.37;;
8060;SDS011;4073;42.626;25.386;2024-01-10T01:24:21;2.87;;;2.67;;
8060;SDS011;4073;42.626;25.386;2024-01-10T01:26:47;3.63;;;2.73;;
8060;SDS011;4073;42.626;25.386;2024-01-10T01:29:12;1.77;;;1.50;;
8060;SDS011;4073;42.626;25.386;2024-01-10T01:31:38;3.60;;;2.43;;
8060;SDS011;4073;42.626;25.386;2024-01-10T01:34:03;3.07;;;1.50;;
8060;SDS011;4073;42.626;25.386;2024-01-10T01:36:29;1.50;;;1.30;;
8060;SDS011;4073;42.626;25.386;2024-01-10T01:38:54;1.37;;;1.23;;
8060;SDS011;4073;42.626;25.386;2024-01-10T01:41:20;1.60;;;1.50;;
8060;SDS011;4073;42.626;25.386;2024-01-10T01:43:45;2.07;;;1.50;;
8060;SDS011;4073;42.626;25.386;2024-01-10T01:46:11;1.87;;;1.70;;
8060;SDS011;4073;42.626;25.386;2024-01-10T01:48:37;1.70;;;1.40;;
8060;SDS011;4073;42.626;25.386;2024-01-10T01:51:04;2.13;;;1.93;;
8060;SDS011;4073;42.626;25.386;2024-01-10T01:53:31;2.90;;;2.05;;
8060;SDS011;4073;42.626;25.386;2024-01-10T01:56:02;1.40;;;1.30;;
8060;SDS011;4073;42.626;25.386;2024-01-10T01:58:31;1.95;;;1.70;;
8060;SDS011;4073;42.626;25.386;2024-01-10T02:00:57;1.83;;;1.60;;
8060;SDS011;4073;42.626;25.386;2024-01-10T02:03:24;1.15;;;1.08;;
8060;SDS011;4073;42.626;25.386;2024-01-10T02:05:49;2.00;;;1.80;;
8060;SDS011;4073;42.626;25.386;2024-01-10T02:08:15;1.80;;;1.60;;
8060;SDS011;4073;42.626;25.386;2024-01-10T02:10:40;1.20;;;1.20;;
8060;SDS011;4073;42.626;25.386;2024-01-10T02:13:06;1.20;;;1.10;;
8060;SDS011;4073;42.626;25.386;2024-01-10T02:15:34;1.40;;;1.30;;
8060;SDS011;4073;42.626;25.386;2024-01-10T02:18:00;1.85;;;1.27;;
8060;SDS011;4073;42.626;25.386;2024-01-10T02:20:26;2.53;;;2.10;;
8060;SDS011;4073;42.626;25.386;2024-01-10T02:22:52;2.00;;;1.27;;
8060;SDS011;4073;42.626;25.386;2024-01-10T02:25:17;1.50;;;1.40;;
8060;SDS011;4073;42.626;25.386;2024-01-10T02:27:43;2.33;;;1.90;;
8060;SDS011;4073;42.626;25.386;2024-01-10T02:30:09;1.40;;;1.30;;
8060;SDS011;4073;42.626;25.386;2024-01-10T02:32:36;1.40;;;1.30;;
8060;SDS011;4073;42.626;25.386;2024-01-10T02:35:02;1.50;;;1.40;;
8060;SDS011;4073;42.626;25.386;2024-01-10T02:37:28;1.60;;;1.50;;
8060;SDS011;4073;42.626;25.386;2024-01-10T02:39:53;2.30;;;1.73;;
8060;SDS011;4073;42.626;25.386;2024-01-10T02:42:19;3.60;;;2.40;;
8060;SDS011;4073;42.626;25.386;2024-01-10T02:44:45;1.70;;;1.60;;
8060;SDS011;4073;42.626;25.386;2024-01-10T02:47:11;2.37;;;2.17;;
8060;SDS011;4073;42.626;25.386;2024-01-10T02:49:37;2.20;;;1.35;;
8060;SDS011;4073;42.626;25.386;2024-01-10T02:52:02;1.47;;;1.13;;
8060;SDS011;4073;42.626;25.386;2024-01-10T02:54:28;1.33;;;1.20;;
8060;SDS011;4073;42.626;25.386;2024-01-10T02:56:54;1.33;;;1.23;;
8060;SDS011;4073;42.626;25.386;2024-01-10T02:59:19;1.23;;;1.13;;
8060;SDS011;4073;42.626;25.386;2024-01-10T03:01:45;1.23;;;1.13;;
8060;SDS011;4073;42.626;25.386;2024-01-10T03:04:10;1.47;;;1.13;;
8060;SDS011;4073;42.626;25.386;2024-01-10T03:06:36;1.47;;;1.10;;
8060;SDS011;4073;42.626;25.386;2024-01-10T03:09:02;1.43;;;1.33;;
8060;SDS011;4073;42.626;25.386;2024-01-10T03:11:28;1.50;;;1.40;;
8060;SDS011;4073;42.626;25.386;2024-01-10T03:14:00;2.37;;;1.50;;
8060;SDS011;4073;42.626;25.386;2024-01-10T03:16:29;2.17;;;2.00;;
8060;SDS011;4073;42.626;25.386;2024-01-10T03:18:55;5.22;;;2.55;;
8060;SDS011;4073;42.626;25.386;2024-01-10T03:21:20;6.63;;;3.10;;
8060;SDS011;4073;42.626;25.386;2024-01-10T03:23:50;3.10;;;2.40;;
8060;SDS011;4073;42.626;25.386;2024-01-10T03:26:15;3.75;;;2.90;;
8060;SDS011;4073;42.626;25.386;2024-01-10T03:28:41;6.67;;;3.40;;
8060;SDS011;4073;42.626;25.386;2024-01-10T03:31:06;4.53;;;3.27;;
8060;SDS011;4073;42.626;25.386;2024-01-10T03:33:32;4.70;;;3.50;;
8060;SDS011;4073;42.626;25.386;2024-01-10T03:35:58;5.63;;;3.03;;
8060;SDS011;4073;42.626;25.386;2024-01-10T03:38:23;4.27;;;3.30;;
8060;SDS011;4073;42.626;25.386;2024-01-10T03:40:49;4.67;;;2.80;;
8060;SDS011;4073;42.626;25.386;2024-01-10T03:43:14;5.03;;;3.40;;
8060;SDS011;4073;42.626;25.386;2024-01-10T03:45:41;4.95;;;3.55;;
8060;SDS011;4073;42.626;25.386;2024-01-10T03:48:07;5.53;;;4.20;;
8060;SDS011;4073;42.626;25.386;2024-01-10T03:50:33;3.80;;;3.40;;
8060;SDS011;4073;42.626;25.386;2024-01-10T03:52:58;5.17;;;3.43;;
8060;SDS011;4073;42.626;25.386;2024-01-10T03:55:24;8.73;;;6.53;;
8060;SDS011;4073;42.626;25.386;2024-01-10T03:57:49;5.10;;;4.47;;
8060;SDS011;4073;42.626;25.386;2024-01-10T04:00:15;7.20;;;4.60;;
8060;SDS011;4073;42.626;25.386;2024-01-10T04:02:41;5.85;;;3.92;;
8060;SDS011;4073;42.626;25.386;2024-01-10T04:05:10;5.60;;;3.53;;
8060;SDS011;4073;42.626;25.386;2024-01-10T04:07:38;5.57;;;3.90;;
8060;SDS011;4073;42.626;25.386;2024-01-10T04:10:06;5.30;;;4.53;;
8060;SDS011;4073;42.626;25.386;2024-01-10T04:12:35;7.93;;;5.60;;
8060;SDS011;4073;42.626;25.386;2024-01-10T04:15:02;9.13;;;5.20;;
8060;SDS011;4073;42.626;25.386;2024-01-10T04:17:29;7.05;;;5.60;;
8060;SDS011;4073;42.626;25.386;2024-01-10T04:19:55;7.60;;;5.10;;
8060;SDS011;4073;42.626;25.386;2024-01-10T04:22:21;5.77;;;4.23;;
8060;SDS011;4073;42.626;25.386;2024-01-10T04:24:47;6.25;;;4.78;;
8060;SDS011;4073;42.626;25.386;2024-01-10T04:27:12;6.60;;;4.63;;
8060;SDS011;4073;42.626;25.386;2024-01-10T04:29:38;11.47;;;5.93;;
8060;SDS011;4073;42.626;25.386;2024-01-10T04:32:03;9.80;;;7.97;;
8060;SDS011;4073;42.626;25.386;2024-01-10T04:34:29;9.43;;;6.38;;
8060;SDS011;4073;42.626;25.386;2024-01-10T04:36:55;14.50;;;10.63;;
8060;SDS011;4073;42.626;25.386;2024-01-10T04:39:20;27.40;;;14.00;;
8060;SDS011;4073;42.626;25.386;2024-01-10T04:41:46;15.67;;;8.83;;
8060;SDS011;4073;42.626;25.386;2024-01-10T04:44:11;12.47;;;6.43;;
8060;SDS011;4073;42.626;25.386;2024-01-10T04:46:37;8.23;;;4.80;;
8060;SDS011;4073;42.626;25.386;2024-01-10T04:49:02;6.67;;;5.90;;
8060;SDS011;4073;42.626;25.386;2024-01-10T04:51:28;4.03;;;2.90;;
8060;SDS011;4073;42.626;25.386;2024-01-10T04:53:53;4.47;;;2.93;;
8060;SDS011;4073;42.626;25.386;2024-01-10T04:56:19;3.13;;;2.63;;
8060;SDS011;4073;42.626;25.386;2024-01-10T04:58:44;4.50;;;2.77;;
8060;SDS011;4073;42.626;25.386;2024-01-10T05:01:11;2.40;;;2.20;;
8060;SDS011;4073;42.626;25.386;2024-01-10T05:03:36;2.63;;;2.43;;
8060;SDS011;4073;42.626;25.386;2024-01-10T05:06:02;4.07;;;3.67;;
8060;SDS011;4073;42.626;25.386;2024-01-10T05:08:28;7.43;;;6.17;;
8060;SDS011;4073;42.626;25.386;2024-01-10T05:10:53;5.47;;;4.10;;
8060;SDS011;4073;42.626;25.386;2024-01-10T05:13:19;14.00;;;7.50;;
8060;SDS011;4073;42.626;25.386;2024-01-10T05:15:44;21.63;;;12.53;;
8060;SDS011;4073;42.626;25.386;2024-01-10T05:18:10;20.23;;;10.90;;
8060;SDS011;4073;42.626;25.386;2024-01-10T05:20:35;24.97;;;13.10;;
8060;SDS011;4073;42.626;25.386;2024-01-10T05:23:01;22.37;;;15.27;;
8060;SDS011;4073;42.626;25.386;2024-01-10T05:25:26;16.17;;;8.00;;
8060;SDS011;4073;42.626;25.386;2024-01-10T05:27:52;14.03;;;8.13;;
8060;SDS011;4073;42.626;25.386;2024-01-10T05:30:18;14.03;;;8.13;;
8060;SDS011;4073;42.626;25.386;2024-01-10T05:32:44;17.88;;;12.15;;
8060;SDS011;4073;42.626;25.386;2024-01-10T05:35:09;10.97;;;7.27;;
8060;SDS011;4073;42.626;25.386;2024-01-10T05:37:35;21.00;;;12.50;;
8060;SDS011;4073;42.626;25.386;2024-01-10T05:40:01;15.00;;;10.05;;
8060;SDS011;4073;42.626;25.386;2024-01-10T05:42:27;8.70;;;5.30;;
8060;SDS011;4073;42.626;25.386;2024-01-10T05:44:53;10.23;;;8.03;;
8060;SDS011;4073;42.626;25.386;2024-01-10T05:47:18;6.47;;;4.40;;
8060;SDS011;4073;42.626;25.386;2024-01-10T05:49:44;9.03;;;5.13;;
8060;SDS011;4073;42.626;25.386;2024-01-10T05:52:09;82.83;;;39.03;;
8060;SDS011;4073;42.626;25.386;2024-01-10T05:54:35;23.23;;;13.27;;
8060;SDS011;4073;42.626;25.386;2024-01-10T05:57:00;8.57;;;6.60;;
8060;SDS011;4073;42.626;25.386;2024-01-10T05:59:27;7.70;;;4.32;;
8060;SDS011;4073;42.626;25.386;2024-01-10T06:01:53;7.40;;;5.43;;
8060;SDS011;4073;42.626;25.386;2024-01-10T06:04:18;11.30;;;7.07;;
8060;SDS011;4073;42.626;25.386;2024-01-10T06:06:44;6.43;;;3.60;;
8060;SDS011;4073;42.626;25.386;2024-01-10T06:09:11;14.45;;;8.35;;
8060;SDS011;4073;42.626;25.386;2024-01-10T06:11:42;16.70;;;11.87;;
8060;SDS011;4073;42.626;25.386;2024-01-10T06:14:08;2.97;;;2.70;;
8060;SDS011;4073;42.626;25.386;2024-01-10T06:16:34;6.03;;;4.87;;
8060;SDS011;4073;42.626;25.386;2024-01-10T06:19:00;10.20;;;8.77;;
8060;SDS011;4073;42.626;25.386;2024-01-10T06:21:26;15.67;;;11.10;;
8060;SDS011;4073;42.626;25.386;2024-01-10T06:23:51;13.93;;;8.30;;
8060;SDS011;4073;42.626;25.386;2024-01-10T06:26:17;8.30;;;6.77;;
8060;SDS011;4073;42.626;25.386;2024-01-10T06:28:42;15.83;;;8.60;;
8060;SDS011;4073;42.626;25.386;2024-01-10T06:31:08;14.87;;;7.90;;
8060;SDS011;4073;42.626;25.386;2024-01-10T06:33:33;12.50;;;8.40;;
8060;SDS011;4073;42.626;25.386;2024-01-10T06:35:59;15.27;;;9.90;;
8060;SDS011;4073;42.626;25.386;2024-01-10T06:38:24;13.07;;;8.90;;
8060;SDS011;4073;42.626;25.386;2024-01-10T06:40:50;14.23;;;11.00;;
8060;SDS011;4073;42.626;25.386;2024-01-10T06:43:15;17.67;;;11.80;;
8060;SDS011;4073;42.626;25.386;2024-01-10T06:45:41;14.73;;;10.87;;
8060;SDS011;4073;42.626;25.386;2024-01-10T06:48:07;13.90;;;9.48;;
8060;SDS011;4073;42.626;25.386;2024-01-10T06:50:33;13.73;;;10.73;;
8060;SDS011;4073;42.626;25.386;2024-01-10T06:52:59;12.57;;;9.03;;
8060;SDS011;4073;42.626;25.386;2024-01-10T06:55:24;10.27;;;7.30;;
8060;SDS011;4073;42.626;25.386;2024-01-10T06:57:51;8.68;;;6.25;;
8060;SDS011;4073;42.626;25.386;2024-01-10T07:00:19;9.60;;;5.28;;
8060;SDS011;4073;42.626;25.386;2024-01-10T07:02:48;18.42;;;11.95;;
8060;SDS011;4073;42.626;25.386;2024-01-10T07:05:14;22.15;;;13.45;;
8060;SDS011;4073;42.626;25.386;2024-01-10T07:07:41;18.20;;;12.17;;
8060;SDS011;4073;42.626;25.386;2024-01-10T07:10:07;12.10;;;8.75;;
8060;SDS011;4073;42.626;25.386;2024-01-10T07:12:33;14.70;;;10.43;;
8060;SDS011;4073;42.626;25.386;2024-01-10T07:14:59;6.03;;;5.43;;
8060;SDS011;4073;42.626;25.386;2024-01-10T07:17:25;5.97;;;4.13;;
8060;SDS011;4073;42.626;25.386;2024-01-10T07:19:50;7.00;;;4.00;;
8060;SDS011;4073;42.626;25.386;2024-01-10T07:22:16;9.30;;;6.40;;
8060;SDS011;4073;42.626;25.386;2024-01-10T07:24:43;20.40;;;12.13;;
8060;SDS011;4073;42.626;25.386;2024-01-10T07:27:09;7.73;;;6.63;;
8060;SDS011;4073;42.626;25.386;2024-01-10T07:29:35;9.07;;;7.03;;
8060;SDS011;4073;42.626;25.386;2024-01-10T07:32:00;14.23;;;9.50;;
8060;SDS011;4073;42.626;25.386;2024-01-10T07:34:26;5.47;;;3.53;;
8060;SDS011;4073;42.626;25.386;2024-01-10T07:36:51;9.93;;;5.87;;
8060;SDS011;4073;42.626;25.386;2024-01-10T07:39:19;15.13;;;9.30;;
8060;SDS011;4073;42.626;25.386;2024-01-10T07:41:45;18.23;;;10.63;;
8060;SDS011;4073;42.626;25.386;2024-01-10T07:44:11;32.23;;;17.97;;
8060;SDS011;4073;42.626;25.386;2024-01-10T07:46:37;21.00;;;13.33;;
8060;SDS011;4073;42.626;25.386;2024-01-10T07:49:06;12.13;;;8.37;;
8060;SDS011;4073;42.626;25.386;2024-01-10T07:51:31;10.20;;;6.47;;
8060;SDS011;4073;42.626;25.386;2024-01-10T07:53:57;7.70;;;5.90;;
8060;SDS011;4073;42.626;25.386;2024-01-10T07:56:24;5.87;;;5.27;;
8060;SDS011;4073;42.626;25.386;2024-01-10T07:58:49;12.77;;;8.03;;
8060;SDS011;4073;42.626;25.386;2024-01-10T08:01:16;23.33;;;13.93;;
8060;SDS011;4073;42.626;25.386;2024-01-10T08:03:42;11.10;;;6.60;;
8060;SDS011;4073;42.626;25.386;2024-01-10T08:06:07;9.87;;;7.53;;
8060;SDS011;4073;42.626;25.386;2024-01-10T08:08:33;19.03;;;11.73;;
8060;SDS011;4073;42.626;25.386;2024-01-10T08:10:59;9.50;;;6.67;;
8060;SDS011;4073;42.626;25.386;2024-01-10T08:13:24;17.30;;;9.83;;
8060;SDS011;4073;42.626;25.386;2024-01-10T08:15:50;23.63;;;15.40;;
8060;SDS011;4073;42.626;25.386;2024-01-10T08:18:16;12.33;;;10.93;;
8060;SDS011;4073;42.626;25.386;2024-01-10T08:20:41;17.73;;;12.90;;
8060;SDS011;4073;42.626;25.386;2024-01-10T08:23:07;9.17;;;7.57;;
8060;SDS011;4073;42.626;25.386;2024-01-10T08:25:33;11.63;;;9.50;;
8060;SDS011;4073;42.626;25.386;2024-01-10T08:27:58;7.80;;;6.23;;
8060;SDS011;4073;42.626;25.386;2024-01-10T08:30:24;9.77;;;8.13;;
8060;SDS011;4073;42.626;25.386;2024-01-10T08:32:50;10.70;;;8.07;;
8060;SDS011;4073;42.626;25.386;2024-01-10T08:35:15;11.33;;;9.13;;
8060;SDS011;4073;42.626;25.386;2024-01-10T08:37:41;10.30;;;7.23;;
8060;SDS011;4073;42.626;25.386;2024-01-10T08:40:10;9.70;;;7.37;;
8060;SDS011;4073;42.626;25.386;2024-01-10T08:42:37;10.50;;;8.50;;
8060;SDS011;4073;42.626;25.386;2024-01-10T08:45:03;7.50;;;6.70;;
8060;SDS011;4073;42.626;25.386;2024-01-10T08:47:29;28.50;;;17.50;;
8060;SDS011;4073;42.626;25.386;2024-01-10T08:49:59;13.93;;;8.57;;
8060;SDS011;4073;42.626;25.386;2024-01-10T08:52:25;10.00;;;6.17;;
8060;SDS011;4073;42.626;25.386;2024-01-10T08:54:51;9.63;;;5.37;;
8060;SDS011;4073;42.626;25.386;2024-01-10T08:57:17;6.57;;;5.20;;
8060;SDS011;4073;42.626;25.386;2024-01-10T08:59:42;11.30;;;7.17;;
8060;SDS011;4073;42.626;25.386;2024-01-10T09:02:08;22.63;;;18.77;;
8060;SDS011;4073;42.626;25.386;2024-01-10T09:04:33;11.50;;;8.67;;
8060;SDS011;4073;42.626;25.386;2024-01-10T09:06:59;5.10;;;4.60;;
8060;SDS011;4073;42.626;25.386;2024-01-10T09:09:24;11.00;;;5.77;;
8060;SDS011;4073;42.626;25.386;2024-01-10T09:11:50;10.10;;;7.97;;
8060;SDS011;4073;42.626;25.386;2024-01-10T09:14:15;10.03;;;7.33;;
8060;SDS011;4073;42.626;25.386;2024-01-10T09:16:41;7.07;;;5.47;;
8060;SDS011;4073;42.626;25.386;2024-01-10T09:19:06;5.67;;;4.80;;
8060;SDS011;4073;42.626;25.386;2024-01-10T09:21:32;8.97;;;6.37;;
8060;SDS011;4073;42.626;25.386;2024-01-10T09:23:58;6.00;;;4.33;;
8060;SDS011;4073;42.626;25.386;2024-01-10T09:26:23;12.07;;;7.03;;
8060;SDS011;4073;42.626;25.386;2024-01-10T09:28:49;7.57;;;6.73;;
8060;SDS011;4073;42.626;25.386;2024-01-10T09:31:15;5.73;;;3.97;;
8060;SDS011;4073;42.626;25.386;2024-01-10T09:33:40;8.43;;;5.20;;
8060;SDS011;4073;42.626;25.386;2024-01-10T09:36:06;6.77;;;3.70;;
8060;SDS011;4073;42.626;25.386;2024-01-10T09:38:35;5.70;;;3.50;;
8060;SDS011;4073;42.626;25.386;2024-01-10T09:41:02;4.73;;;3.53;;
8060;SDS011;4073;42.626;25.386;2024-01-10T09:43:32;5.23;;;3.63;;
8060;SDS011;4073;42.626;25.386;2024-01-10T09:46:00;3.97;;;2.50;;
8060;SDS011;4073;42.626;25.386;2024-01-10T09:48:27;5.37;;;4.23;;
8060;SDS011;4073;42.626;25.386;2024-01-10T09:50:54;4.30;;;3.73;;
8060;SDS011;4073;42.626;25.386;2024-01-10T09:53:27;5.20;;;4.30;;
8060;SDS011;4073;42.626;25.386;2024-01-10T09:55:56;3.30;;;3.00;;
8060;SDS011;4073;42.626;25.386;2024-01-10T09:58:25;5.93;;;3.97;;
8060;SDS011;4073;42.626;25.386;2024-01-10T10:00:51;5.43;;;3.20;;
8060;SDS011;4073;42.626;25.386;2024-01-10T10:03:17;6.37;;;3.60;;
8060;SDS011;4073;42.626;25.386;2024-01-10T10:05:43;5.30;;;4.80;;
8060;SDS011;4073;42.626;25.386;2024-01-10T10:08:12;6.07;;;3.93;;
8060;SDS011;4073;42.626;25.386;2024-01-10T10:10:48;4.23;;;3.83;;
8060;SDS011;4073;42.626;25.386;2024-01-10T10:13:27;4.93;;;3.93;;
8060;SDS011;4073;42.626;25.386;2024-01-10T10:15:57;6.63;;;4.60;;
8060;SDS011;4073;42.626;25.386;2024-01-10T10:18:27;6.20;;;4.10;;
8060;SDS011;4073;42.626;25.386;2024-01-10T10:21:09;3.03;;;2.50;;
8060;SDS011;4073;42.626;25.386;2024-01-10T10:23:39;6.23;;;3.47;;
8060;SDS011;4073;42.626;25.386;2024-01-10T10:26:22;7.87;;;4.90;;
8060;SDS011;4073;42.626;25.386;2024-01-10T10:28:49;7.47;;;4.80;;
8060;SDS011;4073;42.626;25.386;2024-01-10T10:31:16;5.33;;;4.10;;
8060;SDS011;4073;42.626;25.386;2024-01-10T10:33:43;5.03;;;4.10;;
8060;SDS011;4073;42.626;25.386;2024-01-10T10:36:10;5.23;;;3.80;;
8060;SDS011;4073;42.626;25.386;2024-01-10T10:38:36;4.80;;;3.93;;
8060;SDS011;4073;42.626;25.386;2024-01-10T10:41:04;5.57;;;4.77;;
8060;SDS011;4073;42.626;25.386;2024-01-10T10:43:35;5.57;;;4.07;;
8060;SDS011;4073;42.626;25.386;2024-01-10T10:46:03;4.90;;;3.93;;
8060;SDS011;4073;42.626;25.386;2024-01-10T10:48:33;3.00;;;2.70;;
8060;SDS011;4073;42.626;25.386;2024-01-10T10:51:09;4.27;;;2.70;;
8060;SDS011;4073;42.626;25.386;2024-01-10T10:53:36;5.63;;;3.40;;
8060;SDS011;4073;42.626;25.386;2024-01-10T10:56:04;4.50;;;3.13;;
8060;SDS011;4073;42.626;25.386;2024-01-10T10:58:43;4.37;;;3.10;;
8060;SDS011;4073;42.626;25.386;2024-01-10T11:01:11;4.50;;;3.77;;
8060;SDS011;4073;42.626;25.386;2024-01-10T11:03:38;3.93;;;3.30;;
8060;SDS011;4073;42.626;25.386;2024-01-10T11:06:05;4.10;;;3.10;;
8060;SDS011;4073;42.626;25.386;2024-01-10T11:08:34;2.90;;;2.27;;
8060;SDS011;4073;42.626;25.386;2024-01-10T11:11:06;3.50;;;2.50;;
8060;SDS011;4073;42.626;25.386;2024-01-10T11:17:06;6.27;;;3.40;;
8060;SDS011;4073;42.626;25.386;2024-01-10T11:25:04;10.30;;;5.17;;
8060;SDS011;4073;42.626;25.386;2024-01-10T11:27:30;7.00;;;5.00;;
8060;SDS011;4073;42.626;25.386;2024-01-10T11:29:56;3.37;;;2.97;;
8060;SDS011;4073;42.626;25.386;2024-01-10T11:32:24;3.87;;;3.43;;
8060;SDS011;4073;42.626;25.386;2024-01-10T11:37:18;10.63;;;6.97;;
8060;SDS011;4073;42.626;25.386;2024-01-10T11:39:44;5.10;;;3.23;;
8060;SDS011;4073;42.626;25.386;2024-01-10T11:42:10;3.80;;;2.80;;
8060;SDS011;4073;42.626;25.386;2024-01-10T11:44:46;6.20;;;3.20;;
8060;SDS011;4073;42.626;25.386;2024-01-10T11:47:14;4.63;;;4.13;;
8060;SDS011;4073;42.626;25.386;2024-01-10T11:49:40;7.57;;;5.20;;
8060;SDS011;4073;42.626;25.386;2024-01-10T11:52:06;3.97;;;3.43;;
8060;SDS011;4073;42.626;25.386;2024-01-10T11:54:37;4.90;;;4.00;;
8060;SDS011;4073;42.626;25.386;2024-01-10T11:57:14;7.10;;;6.40;;
8060;SDS011;4073;42.626;25.386;2024-01-10T11:59:43;6.50;;;5.13;;
8060;SDS011;4073;42.626;25.386;2024-01-10T12:02:13;4.97;;;3.67;;
8060;SDS011;4073;42.626;25.386;2024-01-10T12:04:39;7.77;;;6.20;;
8060;SDS011;4073;42.626;25.386;2024-01-10T12:07:06;6.57;;;5.13;;
8060;SDS011;4073;42.626;25.386;2024-01-10T12:09:33;6.53;;;5.93;;
8060;SDS011;4073;42.626;25.386;2024-01-10T12:12:01;5.00;;;4.50;;
8060;SDS011;4073;42.626;25.386;2024-01-10T12:14:27;7.60;;;4.73;;
8060;SDS011;4073;42.626;25.386;2024-01-10T12:16:53;9.93;;;6.83;;
8060;SDS011;4073;42.626;25.386;2024-01-10T12:19:19;7.37;;;6.20;;
8060;SDS011;4073;42.626;25.386;2024-01-10T12:21:45;9.80;;;6.50;;
8060;SDS011;4073;42.626;25.386;2024-01-10T12:24:10;9.27;;;6.20;;
8060;SDS011;4073;42.626;25.386;2024-01-10T12:26:36;6.13;;;5.40;;
8060;SDS011;4073;42.626;25.386;2024-01-10T12:29:11;8.50;;;5.73;;
8060;SDS011;4073;42.626;25.386;2024-01-10T12:31:37;6.77;;;5.20;;
8060;SDS011;4073;42.626;25.386;2024-01-10T12:34:04;6.67;;;4.67;;
8060;SDS011;4073;42.626;25.386;2024-01-10T12:36:33;6.03;;;5.03;;
8060;SDS011;4073;42.626;25.386;2024-01-10T12:38:59;9.00;;;6.97;;
8060;SDS011;4073;42.626;25.386;2024-01-10T12:41:24;7.80;;;6.87;;
8060;SDS011;4073;42.626;25.386;2024-01-10T12:43:54;7.00;;;4.90;;
8060;SDS011;4073;42.626;25.386;2024-01-10T12:46:20;9.63;;;5.90;;
8060;SDS011;4073;42.626;25.386;2024-01-10T12:48:58;12.93;;;7.17;;
8060;SDS011;4073;42.626;25.386;2024-01-10T12:51:32;11.43;;;9.77;;
8060;SDS011;4073;42.626;25.386;2024-01-10T12:54:01;11.60;;;7.97;;
8060;SDS011;4073;42.626;25.386;2024-01-10T12:56:29;11.27;;;7.10;;
8060;SDS011;4073;42.626;25.386;2024-01-10T12:58:55;11.13;;;8.27;;
8060;SDS011;4073;42.626;25.386;2024-01-10T13:01:22;11.50;;;7.57;;
8060;SDS011;4073;42.626;25.386;2024-01-10T13:03:49;14.20;;;9.10;;
8060;SDS011;4073;42.626;25.386;2024-01-10T13:06:15;14.90;;;10.13;;
8060;SDS011;4073;42.626;25.386;2024-01-10T13:08:41;27.37;;;15.00;;
8060;SDS011;4073;42.626;25.386;2024-01-10T13:11:07;17.83;;;11.57;;
8060;SDS011;4073;42.626;25.386;2024-01-10T13:13:37;21.57;;;13.07;;
8060;SDS011;4073;42.626;25.386;2024-01-10T13:16:03;12.97;;;8.87;;
8060;SDS011;4073;42.626;25.386;2024-01-10T13:18:29;9.17;;;6.20;;
8060;SDS011;4073;42.626;25.386;2024-01-10T13:20:55;7.00;;;5.93;;
8060;SDS011;4073;42.626;25.386;2024-01-10T13:23:22;9.40;;;6.83;;
8060;SDS011;4073;42.626;25.386;2024-01-10T13:25:48;8.57;;;6.60;;
8060;SDS011;4073;42.626;25.386;2024-01-10T13:28:14;11.53;;;7.23;;
8060;SDS011;4073;42.626;25.386;2024-01-10T13:30:40;8.37;;;5.50;;
8060;SDS011;4073;42.626;25.386;2024-01-10T13:33:08;11.83;;;6.60;;
8060;SDS011;4073;42.626;25.386;2024-01-10T13:35:34;7.73;;;5.30;;
8060;SDS011;4073;42.626;25.386;2024-01-10T13:38:03;8.43;;;5.23;;
8060;SDS011;4073;42.626;25.386;2024-01-10T13:40:29;6.67;;;4.17;;
8060;SDS011;4073;42.626;25.386;2024-01-10T13:42:56;11.20;;;5.97;;
8060;SDS011;4073;42.626;25.386;2024-01-10T13:45:22;12.80;;;6.83;;
8060;SDS011;4073;42.626;25.386;2024-01-10T13:47:48;9.50;;;6.37;;
8060;SDS011;4073;42.626;25.386;2024-01-10T13:50:14;10.63;;;8.17;;
8060;SDS011;4073;42.626;25.386;2024-01-10T13:52:40;11.17;;;7.50;;
8060;SDS011;4073;42.626;25.386;2024-01-10T13:55:07;11.07;;;8.30;;
8060;SDS011;4073;42.626;25.386;2024-01-10T13:57:33;10.03;;;7.47;;
8060;SDS011;4073;42.626;25.386;2024-01-10T13:59:59;11.60;;;8.20;;
8060;SDS011;4073;42.626;25.386;2024-01-10T14:02:25;5.90;;;5.30;;
8060;SDS011;4073;42.626;25.386;2024-01-10T14:04:51;6.57;;;5.80;;
8060;SDS011;4073;42.626;25.386;2024-01-10T14:07:19;10.53;;;7.87;;
8060;SDS011;4073;42.626;25.386;2024-01-10T14:09:45;13.83;;;9.80;;
8060;SDS011;4073;42.626;25.386;2024-01-10T14:12:11;9.80;;;6.97;;
8060;SDS011;4073;42.626;25.386;2024-01-10T14:14:40;8.27;;;5.90;;
8060;SDS011;4073;42.626;25.386;2024-01-10T14:17:05;7.73;;;4.90;;
8060;SDS011;4073;42.626;25.386;2024-01-10T14:19:31;6.17;;;3.90;;
8060;SDS011;4073;42.626;25.386;2024-01-10T14:21:57;11.33;;;5.40;;
8060;SDS011;4073;42.626;25.386;2024-01-10T14:24:23;6.80;;;4.77;;
8060;SDS011;4073;42.626;25.386;2024-01-10T14:26:49;4.73;;;3.97;;
8060;SDS011;4073;42.626;25.386;2024-01-10T14:29:15;5.37;;;4.87;;
8060;SDS011;4073;42.626;25.386;2024-01-10T14:31:41;7.37;;;5.30;;
8060;SDS011;4073;42.626;25.386;2024-01-10T14:34:06;9.67;;;6.00;;
8060;SDS011;4073;42.626;25.386;2024-01-10T14:36:32;7.50;;;5.70;;
8060;SDS011;4073;42.626;25.386;2024-01-10T14:38:58;4.17;;;3.77;;
8060;SDS011;4073;42.626;25.386;2024-01-10T14:41:23;5.57;;;3.80;;
8060;SDS011;4073;42.626;25.386;2024-01-10T14:43:49;8.20;;;6.43;;
8060;SDS011;4073;42.626;25.386;2024-01-10T14:46:14;8.33;;;6.90;;
8060;SDS011;4073;42.626;25.386;2024-01-10T14:48:40;7.27;;;6.57;;
8060;SDS011;4073;42.626;25.386;2024-01-10T14:51:06;7.03;;;5.73;;
8060;SDS011;4073;42.626;25.386;2024-01-10T14:53:31;11.57;;;8.37;;
8060;SDS011;4073;42.626;25.386;2024-01-10T14:56:00;8.60;;;6.60;;
8060;SDS011;4073;42.626;25.386;2024-01-10T14:58:26;10.20;;;6.40;;
8060;SDS011;4073;42.626;25.386;2024-01-10T15:00:51;12.93;;;7.23;;
8060;SDS011;4073;42.626;25.386;2024-01-10T15:03:17;12.23;;;6.83;;